Cramerton, North Carolina
Current Conditions -  °F | °C
As of 7:54 PM on Tuesday 21 Oct 2014 (Local Time) from KAKH Reporting Station
Clear Clear  
Wind Chill: 63°   Ceiling: Unl
Heat Index: 63°   Visibility: 10mi
Dew Point: 39°   Wind: 3mph
Humidity: 41%   Direction: NA
Pressure: 29.94"   Gusts: NA
Location:  35.24°N, 81.08°W
Report Text: KAKH 212354Z AUTO VRB03KT 10SM CLR 17/04 A2994 RMK AO2 SLP137 T01720039 10239 20172 53022
Loading
Personal Weather Stations






























Interactive Weather Map
Tropical Storm Tracking
New forecast layout! Learn more

10-Day Weather Forecast

Advertisements
Track Severe Weather on mobile